Time,TemperatureF,DewpointF,PressureIn,WindDirection,WindDirectionDegrees,WindSpeedMPH,WindSpeedGustMPH,Humidity,HourlyPrecipIn,Conditions,Clouds,dailyrainin,SoftwareType,DateUTC
2013-03-01 00:04:00,25.5,20.2,30.09,NNW,337,0.0,0.0,80,0.00,,,0.00,WUHU21023XXSP,2013-03-01 06:04:00,
2013-03-01 00:11:00,25.5,19.9,30.09,NNW,337,0.0,0.0,79,0.00,,,0.00,WUHU21023XXSP,2013-03-01 06:11:00,
2013-03-01 00:17:00,25.5,19.9,30.09,NNW,337,0.0,0.0,79,0.00,,,0.00,WUHU21023XXSP,2013-03-01 06:17:00,
2013-03-01 00:24:00,25.5,19.9,30.09,NNW,337,0.0,0.0,79,0.00,,,0.00,WUHU21023XXSP,2013-03-01 06:24:00,
2013-03-01 00:30:00,25.5,19.6,30.09,NNW,337,0.0,5.0,78,0.00,,,0.00,WUHU21023XXSP,2013-03-01 06:30:00,
2013-03-01 00:36:00,25.3,19.4,30.10,NNW,337,0.0,5.0,78,0.00,,,0.00,WUHU21023XXSP,2013-03-01 06:36:00,
2013-03-01 00:43:00,25.3,19.4,30.10,NNW,337,0.0,0.0,78,0.00,,,0.00,WUHU21023XXSP,2013-03-01 06:43:00,
2013-03-01 00:49:00,25.2,19.3,30.10,NNW,337,0.0,0.0,78,0.00,,,0.00,WUHU21023XXSP,2013-03-01 06:49:00,
2013-03-01 00:56:00,25.2,19.3,30.10,NNW,337,0.0,0.0,78,0.00,,,0.00,WUHU21023XXSP,2013-03-01 06:56:00,
2013-03-01 01:02:00,25.0,19.1,30.10,NW,315,4.0,4.0,78,0.00,,,0.00,WUHU21023XXSP,2013-03-01 07:02:00,
2013-03-01 01:09:00,25.0,19.1,30.11,NNW,337,6.0,6.0,78,0.00,,,0.00,WUHU21023XXSP,2013-03-01 07:09:00,
2013-03-01 01:15:00,25.0,19.1,30.10,NNW,337,6.0,6.0,78,0.00,,,0.00,WUHU21023XXSP,2013-03-01 07:15:00,
2013-03-01 01:22:00,25.0,19.1,30.10,NNW,337,0.0,6.0,78,0.00,,,0.00,WUHU21023XXSP,2013-03-01 07:22:00,
2013-03-01 01:28:00,24.6,18.8,30.10,NNW,337,0.0,6.0,78,0.00,,,0.00,WUHU21023XXSP,2013-03-01 07:28:00,
2013-03-01 01:34:00,24.6,18.8,30.10,NNW,337,0.0,4.0,78,0.00,,,0.00,WUHU21023XXSP,2013-03-01 07:34:00,
2013-03-01 01:41:00,24.6,18.8,30.10,NNW,337,0.0,0.0,78,0.00,,,0.00,WUHU21023XXSP,2013-03-01 07:41:00,
2013-03-01 01:47:00,24.6,18.8,30.10,NNW,337,0.0,0.0,78,0.00,,,0.00,WUHU21023XXSP,2013-03-01 07:47:00,
2013-03-01 01:53:00,24.6,18.8,30.10,NNW,337,1.0,3.0,78,0.00,,,0.00,WUHU21023XXSP,2013-03-01 07:53:00,
2013-03-01 02:00:00,24.6,18.8,30.10,NW,315,0.0,3.0,78,0.00,,,0.00,WUHU21023XXSP,2013-03-01 08:00:00,
2013-03-01 02:06:00,24.6,18.8,30.10,NNW,337,0.0,0.0,78,0.00,,,0.00,WUHU21023XXSP,2013-03-01 08:06:00,
2013-03-01 02:13:00,24.6,18.8,30.10,NNW,337,7.0,7.0,78,0.00,,,0.00,WUHU21023XXSP,2013-03-01 08:13:00,
2013-03-01 02:19:00,24.6,18.8,30.10,NW,315,0.0,7.0,78,0.00,,,0.00,WUHU21023XXSP,2013-03-01 08:19:00,
2013-03-01 02:26:00,24.6,18.8,30.10,NNW,337,0.0,0.0,78,0.00,,,0.00,WUHU21023XXSP,2013-03-01 08:26:00,
2013-03-01 02:32:00,24.6,18.8,30.10,NW,315,0.0,2.0,78,0.00,,,0.00,WUHU21023XXSP,2013-03-01 08:32:00,
2013-03-01 02:38:00,24.6,18.8,30.10,NNW,337,3.0,3.0,78,0.00,,,0.00,WUHU21023XXSP,2013-03-01 08:38:00,
2013-03-01 02:45:00,24.4,18.6,30.10,NW,315,4.0,6.0,78,0.00,,,0.00,WUHU21023XXSP,2013-03-01 08:45:00,
2013-03-01 02:51:00,24.4,18.6,30.10,NNW,337,6.0,7.0,78,0.00,,,0.00,WUHU21023XXSP,2013-03-01 08:51:00,
2013-03-01 02:58:00,24.4,18.6,30.10,NNW,337,7.0,7.0,78,0.00,,,0.00,WUHU21023XXSP,2013-03-01 08:58:00,
2013-03-01 03:04:00,24.4,18.9,30.10,NW,315,6.0,7.0,79,0.00,,,0.00,WUHU21023XXSP,2013-03-01 09:04:00,
2013-03-01 03:11:00,24.3,18.7,30.10,NW,315,5.0,6.0,79,0.00,,,0.00,WUHU21023XXSP,2013-03-01 09:11:00,
2013-03-01 03:17:00,24.3,18.7,30.10,NNW,337,0.0,6.0,79,0.00,,,0.00,WUHU21023XXSP,2013-03-01 09:17:00,
2013-03-01 03:23:00,24.1,18.5,30.10,NNW,337,4.0,5.0,79,0.00,,,0.00,WUHU21023XXSP,2013-03-01 09:23:00,
2013-03-01 03:30:00,24.1,18.5,30.10,NNW,337,0.0,6.0,79,0.00,,,0.00,WUHU21023XXSP,2013-03-01 09:30:00,
2013-03-01 03:36:00,24.1,18.5,30.10,NNW,337,0.0,6.0,79,0.00,,,0.00,WUHU21023XXSP,2013-03-01 09:36:00,
2013-03-01 03:43:00,24.1,18.5,30.10,NNW,337,4.0,8.0,79,0.00,,,0.00,WUHU21023XXSP,2013-03-01 09:43:00,
2013-03-01 03:49:00,24.1,18.5,30.10,NNW,337,5.0,8.0,79,0.00,,,0.00,WUHU21023XXSP,2013-03-01 09:49:00,
2013-03-01 03:56:00,24.1,18.5,30.10,NNW,337,5.0,6.0,79,0.00,,,0.00,WUHU21023XXSP,2013-03-01 09:56:00,
2013-03-01 04:02:00,24.1,18.5,30.10,NNW,337,7.0,7.0,79,0.00,,,0.00,WUHU21023XXSP,2013-03-01 10:02:00,
2013-03-01 04:08:00,24.1,18.5,30.11,NNW,337,4.0,7.0,79,0.00,,,0.00,WUHU21023XXSP,2013-03-01 10:08:00,
2013-03-01 04:15:00,24.1,18.5,30.11,NNW,337,5.0,7.0,79,0.00,,,0.00,WUHU21023XXSP,2013-03-01 10:15:00,
2013-03-01 04:21:00,24.1,18.5,30.11,NNW,337,4.0,7.0,79,0.00,,,0.00,WUHU21023XXSP,2013-03-01 10:21:00,
2013-03-01 04:28:00,24.1,18.5,30.11,NNW,337,5.0,7.0,79,0.00,,,0.00,WUHU21023XXSP,2013-03-01 10:28:00,
2013-03-01 04:34:00,24.1,18.5,30.11,NNW,337,0.0,6.0,79,0.00,,,0.00,WUHU21023XXSP,2013-03-01 10:34:00,
2013-03-01 04:41:00,23.9,18.4,30.11,NNW,337,6.0,11.0,79,0.00,,,0.00,WUHU21023XXSP,2013-03-01 10:41:00,
2013-03-01 04:47:00,23.9,18.4,30.12,NNW,337,5.0,11.0,79,0.00,,,0.00,WUHU21023XXSP,2013-03-01 10:47:00,
2013-03-01 04:53:00,23.9,18.4,30.12,NNW,337,8.0,8.0,79,0.00,,,0.00,WUHU21023XXSP,2013-03-01 10:53:00,
2013-03-01 05:00:00,23.9,18.4,30.12,NW,315,7.0,8.0,79,0.00,,,0.00,WUHU21023XXSP,2013-03-01 11:00:00,
2013-03-01 05:06:00,23.9,18.4,30.11,NNW,337,6.0,8.0,79,0.00,,,0.00,WUHU21023XXSP,2013-03-01 11:06:00,
2013-03-01 05:13:00,23.7,18.2,30.12,NNW,337,5.0,7.0,79,0.00,,,0.00,WUHU21023XXSP,2013-03-01 11:13:00,
2013-03-01 05:19:00,23.7,18.2,30.11,NW,315,7.0,8.0,79,0.00,,,0.00,WUHU21023XXSP,2013-03-01 11:19:00,
2013-03-01 05:26:00,23.7,18.2,30.12,NW,315,0.0,7.0,79,0.00,,,0.00,WUHU21023XXSP,2013-03-01 11:26:00,
2013-03-01 05:32:00,23.7,18.2,30.13,NW,315,5.0,7.0,79,0.00,,,0.00,WUHU21023XXSP,2013-03-01 11:32:00,
2013-03-01 05:38:00,23.7,18.2,30.12,NW,315,4.0,7.0,79,0.00,,,0.00,WUHU21023XXSP,2013-03-01 11:38:00,
2013-03-01 05:45:00,23.7,18.2,30.12,NW,315,6.0,7.0,79,0.00,,,0.00,WUHU21023XXSP,2013-03-01 11:45:00,
2013-03-01 05:51:00,23.7,18.2,30.12,NNW,337,5.0,6.0,79,0.00,,,0.00,WUHU21023XXSP,2013-03-01 11:51:00,
2013-03-01 05:58:00,23.5,18.0,30.12,NW,315,6.0,10.0,79,0.00,,,0.00,WUHU21023XXSP,2013-03-01 11:58:00,
2013-03-01 06:04:00,23.5,18.0,30.13,NW,315,7.0,10.0,79,0.00,,,0.00,WUHU21023XXSP,2013-03-01 12:04:00,
2013-03-01 06:10:00,23.5,18.0,30.13,NNW,337,5.0,7.0,79,0.00,,,0.00,WUHU21023XXSP,2013-03-01 12:10:00,
2013-03-01 06:17:00,23.5,18.0,30.13,NNW,337,7.0,8.0,79,0.00,,,0.00,WUHU21023XXSP,2013-03-01 12:17:00,
2013-03-01 06:23:00,23.5,18.0,30.13,NW,315,5.0,7.0,79,0.00,,,0.00,WUHU21023XXSP,2013-03-01 12:23:00,
2013-03-01 06:30:00,23.5,18.0,30.13,NW,315,6.0,7.0,79,0.00,,,0.00,WUHU21023XXSP,2013-03-01 12:30:00,
2013-03-01 06:36:00,23.5,18.0,30.13,WNW,292,5.0,7.0,79,0.00,,,0.00,WUHU21023XXSP,2013-03-01 12:36:00,
2013-03-01 06:43:00,23.5,18.0,30.14,NW,315,5.0,6.0,79,0.00,,,0.00,WUHU21023XXSP,2013-03-01 12:43:00,
2013-03-01 06:49:00,23.4,17.8,30.14,NW,315,5.0,7.0,79,0.00,,,0.00,WUHU21023XXSP,2013-03-01 12:49:00,
2013-03-01 06:55:00,23.4,17.8,30.14,NW,315,7.0,7.0,79,0.00,,,0.00,WUHU21023XXSP,2013-03-01 12:55:00,
2013-03-01 07:02:00,23.4,17.8,30.14,NNW,337,7.0,7.0,79,0.00,,,0.00,WUHU21023XXSP,2013-03-01 13:02:00,
2013-03-01 07:08:00,23.4,17.8,30.14,NNW,337,6.0,8.0,79,0.00,,,0.00,WUHU21023XXSP,2013-03-01 13:08:00,
2013-03-01 07:15:00,23.4,17.8,30.15,NNW,337,7.0,8.0,79,0.00,,,0.00,WUHU21023XXSP,2013-03-01 13:15:00,
2013-03-01 07:21:00,23.4,17.8,30.15,NW,315,6.0,7.0,79,0.00,,,0.00,WUHU21023XXSP,2013-03-01 13:21:00,
2013-03-01 07:28:00,23.4,17.8,30.15,NNW,337,7.0,7.0,79,0.00,,,0.00,WUHU21023XXSP,2013-03-01 13:28:00,
2013-03-01 07:34:00,23.5,18.0,30.16,NNW,337,4.0,7.0,79,0.00,,,0.00,WUHU21023XXSP,2013-03-01 13:34:00,
2013-03-01 07:40:00,23.4,17.8,30.16,NNW,337,0.0,7.0,79,0.00,,,0.00,WUHU21023XXSP,2013-03-01 13:40:00,
2013-03-01 07:47:00,23.4,17.8,30.16,NNW,337,0.0,4.0,79,0.00,,,0.00,WUHU21023XXSP,2013-03-01 13:47:00,
2013-03-01 07:53:00,23.5,18.0,30.16,NNW,337,0.0,6.0,79,0.00,,,0.00,WUHU21023XXSP,2013-03-01 13:53:00,
2013-03-01 08:00:00,23.5,18.0,30.16,NNW,337,0.0,5.0,79,0.00,,,0.00,WUHU21023XXSP,2013-03-01 14:00:00,
2013-03-01 08:06:00,23.7,18.2,30.16,NNW,337,6.0,6.0,79,0.00,,,0.00,WUHU21023XXSP,2013-03-01 14:06:00,
2013-03-01 08:13:00,23.7,18.2,30.16,NNW,337,0.0,6.0,79,0.00,,,0.00,WUHU21023XXSP,2013-03-01 14:13:00,
2013-03-01 08:19:00,23.7,18.2,30.16,NNW,337,6.0,6.0,79,0.00,,,0.00,WUHU21023XXSP,2013-03-01 14:19:00,
2013-03-01 08:25:00,23.7,18.2,30.16,NNW,337,6.0,6.0,79,0.00,,,0.00,WUHU21023XXSP,2013-03-01 14:25:00,
2013-03-01 08:32:00,23.7,18.2,30.16,NNW,337,2.0,6.0,79,0.00,,,0.00,WUHU21023XXSP,2013-03-01 14:32:00,
2013-03-01 08:38:00,23.7,18.2,30.16,NNW,337,6.0,6.0,79,0.00,,,0.00,WUHU21023XXSP,2013-03-01 14:38:00,
2013-03-01 08:45:00,23.9,18.4,30.16,NW,315,0.0,6.0,79,0.00,,,0.00,WUHU21023XXSP,2013-03-01 14:45:00,
2013-03-01 08:51:00,23.9,18.4,30.16,NNW,337,7.0,8.0,79,0.00,,,0.00,WUHU21023XXSP,2013-03-01 14:51:00,
2013-03-01 08:58:00,23.9,18.4,30.16,NNW,337,0.0,8.0,79,0.00,,,0.00,WUHU21023XXSP,2013-03-01 14:58:00,
2013-03-01 09:04:00,24.1,18.5,30.16,NNW,337,5.0,7.0,79,0.00,,,0.00,WUHU21023XXSP,2013-03-01 15:04:00,
2013-03-01 09:10:00,24.1,18.5,30.16,NW,315,6.0,7.0,79,0.00,,,0.00,WUHU21023XXSP,2013-03-01 15:10:00,
2013-03-01 09:17:00,24.1,18.5,30.16,NNW,337,5.0,6.0,79,0.00,,,0.00,WUHU21023XXSP,2013-03-01 15:17:00,
2013-03-01 09:23:00,24.4,18.9,30.17,North,0,6.0,6.0,79,0.00,,,0.00,WUHU21023XXSP,2013-03-01 15:23:00,
2013-03-01 09:30:00,24.4,18.9,30.17,NNW,337,2.0,7.0,79,0.00,,,0.00,WUHU21023XXSP,2013-03-01 15:30:00,
2013-03-01 09:36:00,24.4,18.9,30.17,North,0,5.0,7.0,79,0.00,,,0.00,WUHU21023XXSP,2013-03-01 15:36:00,
2013-03-01 09:43:00,24.4,18.9,30.17,NNW,337,6.0,6.0,79,0.00,,,0.00,WUHU21023XXSP,2013-03-01 15:43:00,
2013-03-01 09:49:00,24.4,18.9,30.17,NNW,337,0.0,6.0,79,0.00,,,0.00,WUHU21023XXSP,2013-03-01 15:49:00,
2013-03-01 09:55:00,24.6,19.1,30.17,NNW,337,0.0,5.0,79,0.00,,,0.00,WUHU21023XXSP,2013-03-01 15:55:00,
2013-03-01 10:02:00,24.6,18.8,30.17,NNW,337,5.0,5.0,78,0.00,,,0.00,WUHU21023XXSP,2013-03-01 16:02:00,
2013-03-01 10:08:00,24.6,18.8,30.18,NNW,337,2.0,5.0,78,0.00,,,0.00,WUHU21023XXSP,2013-03-01 16:08:00,
2013-03-01 10:15:00,24.6,18.8,30.18,NNW,337,5.0,7.0,78,0.00,,,0.00,WUHU21023XXSP,2013-03-01 16:15:00,
2013-03-01 10:21:00,25.0,19.1,30.18,NNW,337,0.0,7.0,78,0.00,,,0.00,WUHU21023XXSP,2013-03-01 16:21:00,
2013-03-01 10:28:00,24.6,18.8,30.18,NNW,337,0.0,7.0,78,0.00,,,0.00,WUHU21023XXSP,2013-03-01 16:28:00,
2013-03-01 10:34:00,24.8,18.9,30.18,NNW,337,0.0,6.0,78,0.00,,,0.00,WUHU21023XXSP,2013-03-01 16:34:00,
2013-03-01 10:40:00,24.6,18.8,30.18,NNW,337,1.0,6.0,78,0.00,,,0.00,WUHU21023XXSP,2013-03-01 16:40:00,
2013-03-01 10:47:00,24.6,18.8,30.18,NNW,337,0.0,6.0,78,0.00,,,0.00,WUHU21023XXSP,2013-03-01 16:47:00,
2013-03-01 10:53:00,25.0,19.1,30.18,NNW,337,7.0,7.0,78,0.00,,,0.00,WUHU21023XXSP,2013-03-01 16:53:00,
2013-03-01 11:00:00,25.0,19.1,30.18,NNW,337,0.0,7.0,78,0.00,,,0.00,WUHU21023XXSP,2013-03-01 17:00:00,
2013-03-01 11:06:00,25.0,19.1,30.18,NNW,337,0.0,5.0,78,0.00,,,0.00,WUHU21023XXSP,2013-03-01 17:06:00,
2013-03-01 11:12:00,25.2,19.3,30.19,NW,315,3.0,4.0,78,0.00,,,0.00,WUHU21023XXSP,2013-03-01 17:12:00,
2013-03-01 11:19:00,25.0,19.1,30.19,North,0,0.0,4.0,78,0.00,,,0.00,WUHU21023XXSP,2013-03-01 17:19:00,
2013-03-01 11:25:00,25.0,19.1,30.19,NNW,337,0.0,6.0,78,0.00,,,0.00,WUHU21023XXSP,2013-03-01 17:25:00,
2013-03-01 11:32:00,25.2,19.3,30.19,NNW,337,3.0,6.0,78,0.00,,,0.00,WUHU21023XXSP,2013-03-01 17:32:00,
2013-03-01 11:38:00,25.3,19.4,30.19,NNW,337,0.0,4.0,78,0.00,,,0.00,WUHU21023XXSP,2013-03-01 17:38:00,
2013-03-01 11:45:00,25.3,19.4,30.19,NW,315,3.0,7.0,78,0.00,,,0.00,WUHU21023XXSP,2013-03-01 17:45:00,
2013-03-01 11:51:00,25.3,19.4,30.19,NNW,337,0.0,7.0,78,0.00,,,0.00,WUHU21023XXSP,2013-03-01 17:51:00,
2013-03-01 11:57:00,25.3,19.1,30.18,NNW,337,3.0,6.0,77,0.00,,,0.00,WUHU21023XXSP,2013-03-01 17:57:00,
2013-03-01 12:04:00,25.2,18.9,30.19,NNW,337,0.0,3.0,77,0.00,,,0.00,WUHU21023XXSP,2013-03-01 18:04:00,
2013-03-01 12:10:00,25.2,19.3,30.19,NNW,337,0.0,8.0,78,0.00,,,0.00,WUHU21023XXSP,2013-03-01 18:10:00,
2013-03-01 12:17:00,25.3,19.1,30.18,NNW,337,5.0,8.0,77,0.00,,,0.00,WUHU21023XXSP,2013-03-01 18:17:00,
2013-03-01 12:23:00,25.2,18.9,30.18,NW,315,8.0,8.0,77,0.00,,,0.00,WUHU21023XXSP,2013-03-01 18:23:00,
2013-03-01 12:30:00,25.3,19.1,30.18,NNW,337,3.0,8.0,77,0.00,,,0.00,WUHU21023XXSP,2013-03-01 18:30:00,
2013-03-01 12:36:00,25.3,19.1,30.19,NNW,337,2.0,5.0,77,0.00,,,0.00,WUHU21023XXSP,2013-03-01 18:36:00,
2013-03-01 12:43:00,25.5,19.3,30.18,NNW,337,5.0,5.0,77,0.00,,,0.00,WUHU21023XXSP,2013-03-01 18:43:00,
2013-03-01 12:49:00,25.5,19.3,30.18,NNW,337,0.0,5.0,77,0.00,,,0.00,WUHU21023XXSP,2013-03-01 18:49:00,
2013-03-01 12:55:00,25.7,19.4,30.18,NNW,337,2.0,6.0,77,0.00,,,0.00,WUHU21023XXSP,2013-03-01 18:55:00,
2013-03-01 13:02:00,25.7,19.4,30.18,NNW,337,6.0,6.0,77,0.00,,,0.00,WUHU21023XXSP,2013-03-01 19:02:00,
2013-03-01 13:08:00,25.7,19.1,30.18,NNW,337,2.0,6.0,76,0.00,,,0.00,WUHU21023XXSP,2013-03-01 19:08:00,
2013-03-01 13:15:00,25.7,19.1,30.18,NNW,337,7.0,7.0,76,0.00,,,0.00,WUHU21023XXSP,2013-03-01 19:15:00,
2013-03-01 13:21:00,25.7,19.1,30.18,NW,315,4.0,7.0,76,0.00,,,0.00,WUHU21023XXSP,2013-03-01 19:21:00,
2013-03-01 13:27:00,25.7,19.1,30.18,NW,315,7.0,7.0,76,0.00,,,0.00,WUHU21023XXSP,2013-03-01 19:27:00,
2013-03-01 13:34:00,25.9,19.3,30.18,WNW,292,6.0,7.0,76,0.00,,,0.00,WUHU21023XXSP,2013-03-01 19:34:00,
2013-03-01 13:40:00,25.7,19.1,30.18,NNW,337,5.0,7.0,76,0.00,,,0.00,WUHU21023XXSP,2013-03-01 19:40:00,
2013-03-01 13:47:00,25.7,19.1,30.18,NNW,337,4.0,7.0,76,0.00,,,0.00,WUHU21023XXSP,2013-03-01 19:47:00,
2013-03-01 13:53:00,25.5,18.9,30.18,NNW,337,7.0,10.0,76,0.00,,,0.00,WUHU21023XXSP,2013-03-01 19:53:00,
2013-03-01 14:00:00,25.5,18.9,30.18,NNW,337,7.0,10.0,76,0.00,,,0.00,WUHU21023XXSP,2013-03-01 20:00:00,
2013-03-01 14:06:00,25.5,18.6,30.18,NNW,337,0.0,8.0,75,0.00,,,0.00,WUHU21023XXSP,2013-03-01 20:06:00,
2013-03-01 14:12:00,25.5,18.6,30.17,NNW,337,0.0,5.0,75,0.00,,,0.00,WUHU21023XXSP,2013-03-01 20:12:00,
2013-03-01 14:19:00,25.5,18.6,30.17,NNW,337,0.0,3.0,75,0.00,,,0.00,WUHU21023XXSP,2013-03-01 20:19:00,
2013-03-01 14:25:00,25.5,18.9,30.17,North,0,2.0,2.0,76,0.00,,,0.00,WUHU21023XXSP,2013-03-01 20:25:00,
2013-03-01 14:32:00,25.5,18.9,30.17,NNW,337,5.0,6.0,76,0.00,,,0.00,WUHU21023XXSP,2013-03-01 20:32:00,
2013-03-01 14:38:00,25.5,18.6,30.17,NNW,337,8.0,8.0,75,0.00,,,0.00,WUHU21023XXSP,2013-03-01 20:38:00,
2013-03-01 14:45:00,25.5,18.6,30.18,NNW,337,0.0,8.0,75,0.00,,,0.00,WUHU21023XXSP,2013-03-01 20:45:00,
2013-03-01 14:51:00,25.5,18.6,30.18,North,0,4.0,7.0,75,0.00,,,0.00,WUHU21023XXSP,2013-03-01 20:51:00,
2013-03-01 14:57:00,25.5,18.6,30.18,NNW,337,5.0,7.0,75,0.00,,,0.00,WUHU21023XXSP,2013-03-01 20:57:00,
2013-03-01 15:04:00,25.7,18.8,30.18,North,0,4.0,5.0,75,0.00,,,0.00,WUHU21023XXSP,2013-03-01 21:04:00,
2013-03-01 15:10:00,25.7,18.8,30.18,NNW,337,5.0,5.0,75,0.00,,,0.00,WUHU21023XXSP,2013-03-01 21:10:00,
2013-03-01 15:17:00,25.7,18.8,30.18,NNW,337,0.0,5.0,75,0.00,,,0.00,WUHU21023XXSP,2013-03-01 21:17:00,
2013-03-01 15:23:00,25.5,18.3,30.18,NNW,337,0.0,2.0,74,0.00,,,0.00,WUHU21023XXSP,2013-03-01 21:23:00,
2013-03-01 15:29:00,25.5,18.3,30.18,NNW,337,3.0,7.0,74,0.00,,,0.00,WUHU21023XXSP,2013-03-01 21:29:00,
2013-03-01 15:36:00,25.3,18.1,30.18,NNW,337,0.0,6.0,74,0.00,,,0.00,WUHU21023XXSP,2013-03-01 21:36:00,
2013-03-01 15:42:00,25.5,18.6,30.18,NNW,337,6.0,6.0,75,0.00,,,0.00,WUHU21023XXSP,2013-03-01 21:42:00,
2013-03-01 15:49:00,25.5,18.3,30.18,NNW,337,3.0,9.0,74,0.00,,,0.00,WUHU21023XXSP,2013-03-01 21:49:00,
2013-03-01 15:55:00,25.3,18.1,30.18,NNW,337,0.0,5.0,74,0.00,,,0.00,WUHU21023XXSP,2013-03-01 21:55:00,
2013-03-01 16:02:00,25.3,18.1,30.18,NNW,337,6.0,6.0,74,0.00,,,0.00,WUHU21023XXSP,2013-03-01 22:02:00,
2013-03-01 16:08:00,25.3,18.1,30.18,NNW,337,7.0,7.0,74,0.00,,,0.00,WUHU21023XXSP,2013-03-01 22:08:00,
2013-03-01 16:14:00,25.2,18.0,30.18,NW,315,6.0,7.0,74,0.00,,,0.00,WUHU21023XXSP,2013-03-01 22:14:00,
2013-03-01 16:21:00,25.0,17.8,30.18,NNW,337,1.0,6.0,74,0.00,,,0.00,WUHU21023XXSP,2013-03-01 22:21:00,
2013-03-01 16:27:00,25.0,17.8,30.18,NNW,337,0.0,5.0,74,0.00,,,0.00,WUHU21023XXSP,2013-03-01 22:27:00,
2013-03-01 16:34:00,24.8,17.6,30.18,NNW,337,0.0,0.0,74,0.00,,,0.00,WUHU21023XXSP,2013-03-01 22:34:00,
2013-03-01 16:40:00,24.6,17.5,30.19,NNW,337,6.0,6.0,74,0.00,,,0.00,WUHU21023XXSP,2013-03-01 22:40:00,
2013-03-01 16:47:00,24.6,17.5,30.19,NNW,337,0.0,6.0,74,0.00,,,0.00,WUHU21023XXSP,2013-03-01 22:47:00,
2013-03-01 16:53:00,24.6,17.5,30.20,NNW,337,0.0,9.0,74,0.00,,,0.00,WUHU21023XXSP,2013-03-01 22:53:00,
2013-03-01 17:00:00,24.6,17.5,30.20,NNW,337,0.0,0.0,74,0.00,,,0.00,WUHU21023XXSP,2013-03-01 23:00:00,
2013-03-01 17:06:00,24.4,17.6,30.20,NNW,337,0.0,6.0,75,0.00,,,0.00,WUHU21023XXSP,2013-03-01 23:06:00,
2013-03-01 17:12:00,24.4,17.6,30.21,NNW,337,0.0,6.0,75,0.00,,,0.00,WUHU21023XXSP,2013-03-01 23:12:00,
2013-03-01 17:19:00,24.4,17.6,30.20,NNW,337,0.0,2.0,75,0.00,,,0.00,WUHU21023XXSP,2013-03-01 23:19:00,
2013-03-01 17:25:00,24.4,17.6,30.20,NNW,337,3.0,3.0,75,0.00,,,0.00,WUHU21023XXSP,2013-03-01 23:25:00,
2013-03-01 17:32:00,24.4,17.6,30.21,NNW,337,6.0,6.0,75,0.00,,,0.00,WUHU21023XXSP,2013-03-01 23:32:00,
2013-03-01 17:38:00,24.4,17.6,30.20,NNW,337,0.0,6.0,75,0.00,,,0.00,WUHU21023XXSP,2013-03-01 23:38:00,
2013-03-01 17:45:00,24.4,17.6,30.21,NNW,337,2.0,5.0,75,0.00,,,0.00,WUHU21023XXSP,2013-03-01 23:45:00,
2013-03-01 17:51:00,24.3,17.4,30.21,NNW,337,3.0,5.0,75,0.00,,,0.00,WUHU21023XXSP,2013-03-01 23:51:00,
2013-03-01 17:57:00,24.1,17.3,30.21,NNW,337,0.0,5.0,75,0.00,,,0.00,WUHU21023XXSP,2013-03-01 23:57:00,
2013-03-01 18:04:00,24.1,17.3,30.21,NNW,337,0.0,4.0,75,0.00,,,0.00,WUHU21023XXSP,2013-03-02 00:04:00,
2013-03-01 18:10:00,24.1,17.3,30.22,NW,315,4.0,4.0,75,0.00,,,0.00,WUHU21023XXSP,2013-03-02 00:10:00,
2013-03-01 18:17:00,23.9,17.6,30.22,NW,315,0.0,4.0,76,0.00,,,0.00,WUHU21023XXSP,2013-03-02 00:17:00,
2013-03-01 18:23:00,23.9,17.4,30.21,NW,315,0.0,2.0,76,0.00,,,0.00,WUHU21023XXSP,2013-03-02 00:23:00,
2013-03-01 18:29:00,23.9,17.4,30.22,NW,315,0.0,0.0,76,0.00,,,0.00,WUHU21023XXSP,2013-03-02 00:29:00,
2013-03-01 18:36:00,23.7,17.2,30.22,NW,315,0.0,0.0,76,0.00,,,0.00,WUHU21023XXSP,2013-03-02 00:36:00,
2013-03-01 18:42:00,23.7,17.2,30.22,NW,315,0.0,0.0,76,0.00,,,0.00,WUHU21023XXSP,2013-03-02 00:42:00,
2013-03-01 18:49:00,23.5,17.4,30.22,NW,315,0.0,0.0,77,0.00,,,0.00,WUHU21023XXSP,2013-03-02 00:49:00,
2013-03-01 18:55:00,23.5,17.4,30.23,NW,315,0.0,0.0,77,0.00,,,0.00,WUHU21023XXSP,2013-03-02 00:55:00,
2013-03-01 19:02:00,23.5,17.4,30.23,NW,315,0.0,0.0,77,0.00,,,0.00,WUHU21023XXSP,2013-03-02 01:02:00,
2013-03-01 19:08:00,23.5,17.4,30.23,NW,315,0.0,0.0,77,0.00,,,0.00,WUHU21023XXSP,2013-03-02 01:08:00,
2013-03-01 19:14:00,23.5,17.4,30.22,NW,315,0.0,0.0,77,0.00,,,0.00,WUHU21023XXSP,2013-03-02 01:14:00,
2013-03-01 19:21:00,23.5,17.4,30.23,NW,315,0.0,0.0,77,0.00,,,0.00,WUHU21023XXSP,2013-03-02 01:21:00,
2013-03-01 19:27:00,23.5,17.4,30.22,NW,315,0.0,0.0,77,0.00,,,0.00,WUHU21023XXSP,2013-03-02 01:27:00,
2013-03-01 19:34:00,23.5,17.4,30.22,NW,315,0.0,0.0,77,0.00,,,0.00,WUHU21023XXSP,2013-03-02 01:34:00,
2013-03-01 19:40:00,23.5,17.4,30.22,NW,315,0.0,0.0,77,0.00,,,0.00,WUHU21023XXSP,2013-03-02 01:40:00,
2013-03-01 19:47:00,23.5,17.4,30.23,NW,315,0.0,0.0,77,0.00,,,0.00,WUHU21023XXSP,2013-03-02 01:47:00,
2013-03-01 19:53:00,23.4,17.5,30.22,NW,315,0.0,0.0,78,0.00,,,0.00,WUHU21023XXSP,2013-03-02 01:53:00,
2013-03-01 19:59:00,23.4,17.5,30.22,NW,315,0.0,0.0,78,0.00,,,0.00,WUHU21023XXSP,2013-03-02 01:59:00,
2013-03-01 20:06:00,23.4,17.5,30.22,NW,315,0.0,1.0,78,0.00,,,0.00,WUHU21023XXSP,2013-03-02 02:06:00,
2013-03-01 20:12:00,23.4,17.5,30.22,NW,315,5.0,5.0,78,0.00,,,0.00,WUHU21023XXSP,2013-03-02 02:12:00,
2013-03-01 20:19:00,23.4,17.5,30.22,NW,315,1.0,5.0,78,0.00,,,0.00,WUHU21023XXSP,2013-03-02 02:19:00,
2013-03-01 20:25:00,23.5,17.7,30.23,NNW,337,0.0,6.0,78,0.00,,,0.00,WUHU21023XXSP,2013-03-02 02:25:00,
2013-03-01 20:32:00,23.5,17.7,30.22,NNW,337,0.0,2.0,78,0.00,,,0.00,WUHU21023XXSP,2013-03-02 02:32:00,
2013-03-01 20:38:00,23.5,17.7,30.23,NW,315,6.0,6.0,78,0.00,,,0.00,WUHU21023XXSP,2013-03-02 02:38:00,
2013-03-01 20:44:00,23.5,17.7,30.23,NW,315,0.0,6.0,78,0.00,,,0.00,WUHU21023XXSP,2013-03-02 02:44:00,
2013-03-01 20:51:00,23.7,17.5,30.23,NNW,337,0.0,6.0,77,0.00,,,0.00,WUHU21023XXSP,2013-03-02 02:51:00,
2013-03-01 20:57:00,23.7,17.5,30.22,NW,315,0.0,6.0,77,0.00,,,0.00,WUHU21023XXSP,2013-03-02 02:57:00,
2013-03-01 21:04:00,23.7,17.5,30.22,NW,315,1.0,3.0,77,0.00,,,0.00,WUHU21023XXSP,2013-03-02 03:04:00,
2013-03-01 21:10:00,23.7,17.5,30.22,NW,315,0.0,3.0,77,0.00,,,0.00,WUHU21023XXSP,2013-03-02 03:10:00,
2013-03-01 21:16:00,23.7,17.5,30.22,NW,315,0.0,2.0,77,0.00,,,0.00,WUHU21023XXSP,2013-03-02 03:16:00,
2013-03-01 21:23:00,23.7,17.5,30.22,NW,315,0.0,2.0,77,0.00,,,0.00,WUHU21023XXSP,2013-03-02 03:23:00,
2013-03-01 21:29:00,23.7,17.2,30.23,NW,315,4.0,8.0,76,0.00,,,0.00,WUHU21023XXSP,2013-03-02 03:29:00,
2013-03-01 21:36:00,23.5,17.1,30.22,NNW,337,9.0,9.0,76,0.00,,,0.00,WUHU21023XXSP,2013-03-02 03:36:00,
2013-03-01 21:42:00,23.5,17.1,30.22,NW,315,2.0,9.0,76,0.00,,,0.00,WUHU21023XXSP,2013-03-02 03:42:00,
2013-03-01 21:49:00,23.5,17.1,30.22,NNW,337,7.0,7.0,76,0.00,,,0.00,WUHU21023XXSP,2013-03-02 03:49:00,
2013-03-01 21:55:00,23.5,17.1,30.22,NNW,337,0.0,7.0,76,0.00,,,0.00,WUHU21023XXSP,2013-03-02 03:55:00,
2013-03-01 22:01:00,23.5,17.1,30.22,NW,315,9.0,9.0,76,0.00,,,0.00,WUHU21023XXSP,2013-03-02 04:01:00,
2013-03-01 22:08:00,23.5,17.1,30.22,NNW,337,5.0,9.0,76,0.00,,,0.00,WUHU21023XXSP,2013-03-02 04:08:00,
2013-03-01 22:14:00,23.5,17.1,30.22,NNW,337,2.0,5.0,76,0.00,,,0.00,WUHU21023XXSP,2013-03-02 04:14:00,
2013-03-01 22:21:00,23.5,16.8,30.21,NW,315,9.0,9.0,75,0.00,,,0.00,WUHU21023XXSP,2013-03-02 04:21:00,
2013-03-01 22:27:00,23.5,16.8,30.21,NNW,337,9.0,9.0,75,0.00,,,0.00,WUHU21023XXSP,2013-03-02 04:27:00,
2013-03-01 22:34:00,23.5,16.8,30.21,NNW,337,3.0,9.0,75,0.00,,,0.00,WUHU21023XXSP,2013-03-02 04:34:00,
2013-03-01 22:40:00,23.5,16.8,30.21,NW,315,2.0,7.0,75,0.00,,,0.00,WUHU21023XXSP,2013-03-02 04:40:00,
2013-03-01 22:46:00,23.5,16.8,30.21,NW,315,0.0,7.0,75,0.00,,,0.00,WUHU21023XXSP,2013-03-02 04:46:00,
2013-03-01 22:53:00,23.5,16.8,30.22,NW,315,0.0,4.0,75,0.00,,,0.00,WUHU21023XXSP,2013-03-02 04:53:00,
2013-03-01 22:59:00,23.4,16.6,30.21,NNW,337,5.0,8.0,75,0.00,,,0.00,WUHU21023XXSP,2013-03-02 04:59:00,
2013-03-01 23:01:00,23.4,16.6,30.21,NW,315,0.0,8.0,75,0.00,,,0.00,WUHU21023XXSP,2013-03-02 05:01:00,
2013-03-01 23:04:00,23.4,16.6,30.21,NW,315,6.0,8.0,75,0.00,,,0.00,WUHU21023XXSP,2013-03-02 05:04:00,
2013-03-01 23:06:00,23.4,16.6,30.21,NW,315,7.0,7.0,75,0.00,,,0.00,WUHU21023XXSP,2013-03-02 05:06:00,
2013-03-01 23:12:00,23.2,16.4,30.21,NNW,337,7.0,7.0,75,0.00,,,0.00,WUHU21023XXSP,2013-03-02 05:12:00,
2013-03-01 23:19:00,23.0,16.3,30.21,NW,315,7.0,7.0,75,0.00,,,0.00,WUHU21023XXSP,2013-03-02 05:19:00,
2013-03-01 23:25:00,22.8,16.1,30.21,NNW,337,1.0,7.0,75,0.00,,,0.00,WUHU21023XXSP,2013-03-02 05:25:00,
2013-03-01 23:31:00,22.8,16.1,30.21,NNW,337,6.0,6.0,75,0.00,,,0.00,WUHU21023XXSP,2013-03-02 05:31:00,
2013-03-01 23:38:00,22.6,15.9,30.21,NW,315,5.0,7.0,75,0.00,,,0.00,WUHU21023XXSP,2013-03-02 05:38:00,
2013-03-01 23:44:00,22.6,15.9,30.21,NNW,337,3.0,5.0,75,0.00,,,0.00,WUHU21023XXSP,2013-03-02 05:44:00,
2013-03-01 23:51:00,22.6,15.9,30.21,NNW,337,0.0,3.0,75,0.00,,,0.00,WUHU21023XXSP,2013-03-02 05:51:00,
2013-03-01 23:57:00,22.5,15.7,30.21,NW,315,6.0,6.0,75,0.00,,,0.00,WUHU21023XXSP,2013-03-02 05:57:00,